PILOTS ONLINE: 415    ATC ONLINE: 50

CYYH - Taloyoak Airport

Location

IATA YYH
City Taloyoak
Country  Canada
Latitude 69° 32' 48" N
Longitude 93° 34' 36" W
Elevation 92 ft
Type Medium Airport

Runways

15T/33T 4020 ft / 100 ft

Weather

METAR
2014/07/30 12:47
CYYH 301247Z 14004KT 1/2SM FG BKN080 RMK FG3AC1
TAF
2014/07/30 12:42
TAF CYYH 301138Z 3012/3024 VRB03KT 1/4SM FG VV005 
      TEMPO 3012/3016 6SM BR FEW090 BKN210 
      BECMG 3016/3018 P6SM NSW FEW090 BKN210 
     FM301800 13006KT P6SM SCT090 
      TEMPO 3018/3024 5SM -SHRA BR BKN060 
      RMK NXT FCST BY 301800Z

Outbound flights

Inbound flights